sensor_id;sensor_type;location;lat;lon;timestamp;temperature;humidity
20158;DHT22;10239;56.820;24.416;2023-09-07T00:02:14;11.10;99.90
20158;DHT22;10239;56.820;24.416;2023-09-07T00:04:41;11.10;99.90
20158;DHT22;10239;56.820;24.416;2023-09-07T00:07:10;11.20;99.90
20158;DHT22;10239;56.820;24.416;2023-09-07T00:09:38;11.20;99.90
20158;DHT22;10239;56.820;24.416;2023-09-07T00:12:06;11.10;99.90
20158;DHT22;10239;56.820;24.416;2023-09-07T00:14:33;11.10;99.90
20158;DHT22;10239;56.820;24.416;2023-09-07T00:17:01;10.90;99.90
20158;DHT22;10239;56.820;24.416;2023-09-07T00:19:30;11.00;99.90
20158;DHT22;10239;56.820;24.416;2023-09-07T00:21:59;11.00;99.90
20158;DHT22;10239;56.820;24.416;2023-09-07T00:24:27;10.90;99.90
20158;DHT22;10239;56.820;24.416;2023-09-07T00:26:54;10.80;99.90
20158;DHT22;10239;56.820;24.416;2023-09-07T00:29:22;10.70;99.90
20158;DHT22;10239;56.820;24.416;2023-09-07T00:31:49;10.70;99.90
20158;DHT22;10239;56.820;24.416;2023-09-07T00:34:17;10.70;99.90
20158;DHT22;10239;56.820;24.416;2023-09-07T00:36:45;10.80;99.90
20158;DHT22;10239;56.820;24.416;2023-09-07T00:39:12;10.70;99.90
20158;DHT22;10239;56.820;24.416;2023-09-07T00:41:40;10.60;99.90
20158;DHT22;10239;56.820;24.416;2023-09-07T00:44:08;10.60;99.90
20158;DHT22;10239;56.820;24.416;2023-09-07T00:46:36;10.40;99.90
20158;DHT22;10239;56.820;24.416;2023-09-07T00:49:03;10.40;99.90
20158;DHT22;10239;56.820;24.416;2023-09-07T00:51:32;10.50;99.90
20158;DHT22;10239;56.820;24.416;2023-09-07T00:54:00;10.40;99.90
20158;DHT22;10239;56.820;24.416;2023-09-07T00:56:28;10.50;99.90
20158;DHT22;10239;56.820;24.416;2023-09-07T00:58:56;10.50;99.90
20158;DHT22;10239;56.820;24.416;2023-09-07T01:01:26;10.50;99.90
20158;DHT22;10239;56.820;24.416;2023-09-07T01:03:54;10.30;99.90
20158;DHT22;10239;56.820;24.416;2023-09-07T01:06:36;10.20;99.90
20158;DHT22;10239;56.820;24.416;2023-09-07T01:09:10;10.30;99.90
20158;DHT22;10239;56.820;24.416;2023-09-07T01:11:40;10.20;99.90
20158;DHT22;10239;56.820;24.416;2023-09-07T01:14:08;10.10;99.90
20158;DHT22;10239;56.820;24.416;2023-09-07T01:16:36;10.20;99.90
20158;DHT22;10239;56.820;24.416;2023-09-07T01:19:06;10.20;99.90
20158;DHT22;10239;56.820;24.416;2023-09-07T01:21:35;10.30;99.90
20158;DHT22;10239;56.820;24.416;2023-09-07T01:24:06;10.10;99.90
20158;DHT22;10239;56.820;24.416;2023-09-07T01:26:36;10.20;99.90
20158;DHT22;10239;56.820;24.416;2023-09-07T01:29:08;10.10;99.90
20158;DHT22;10239;56.820;24.416;2023-09-07T01:31:37;10.10;99.90
20158;DHT22;10239;56.820;24.416;2023-09-07T01:34:06;10.10;99.90
20158;DHT22;10239;56.820;24.416;2023-09-07T01:36:34;10.10;99.90
20158;DHT22;10239;56.820;24.416;2023-09-07T01:39:05;10.10;99.90
20158;DHT22;10239;56.820;24.416;2023-09-07T01:41:33;10.10;99.90
20158;DHT22;10239;56.820;24.416;2023-09-07T01:44:01;10.10;99.90
20158;DHT22;10239;56.820;24.416;2023-09-07T01:46:29;10.00;99.90
20158;DHT22;10239;56.820;24.416;2023-09-07T01:48:57;10.00;99.90
20158;DHT22;10239;56.820;24.416;2023-09-07T01:51:25;9.90;99.90
20158;DHT22;10239;56.820;24.416;2023-09-07T01:53:55;9.90;99.90
20158;DHT22;10239;56.820;24.416;2023-09-07T01:56:23;9.90;99.90
20158;DHT22;10239;56.820;24.416;2023-09-07T01:58:51;9.90;99.90
20158;DHT22;10239;56.820;24.416;2023-09-07T02:01:25;9.80;99.90
20158;DHT22;10239;56.820;24.416;2023-09-07T02:03:53;9.60;99.90
20158;DHT22;10239;56.820;24.416;2023-09-07T02:06:20;9.70;99.90
20158;DHT22;10239;56.820;24.416;2023-09-07T02:08:48;9.70;99.90
20158;DHT22;10239;56.820;24.416;2023-09-07T02:11:16;9.60;99.90
20158;DHT22;10239;56.820;24.416;2023-09-07T02:13:48;9.60;99.90
20158;DHT22;10239;56.820;24.416;2023-09-07T02:16:15;9.60;99.90
20158;DHT22;10239;56.820;24.416;2023-09-07T02:18:44;9.70;99.90
20158;DHT22;10239;56.820;24.416;2023-09-07T02:21:15;9.60;99.90
20158;DHT22;10239;56.820;24.416;2023-09-07T02:23:43;9.70;99.90
20158;DHT22;10239;56.820;24.416;2023-09-07T02:26:11;9.70;99.90
20158;DHT22;10239;56.820;24.416;2023-09-07T02:28:38;9.70;99.90
20158;DHT22;10239;56.820;24.416;2023-09-07T02:31:07;9.60;99.90
20158;DHT22;10239;56.820;24.416;2023-09-07T02:33:35;9.50;99.90
20158;DHT22;10239;56.820;24.416;2023-09-07T02:36:03;9.60;99.90
20158;DHT22;10239;56.820;24.416;2023-09-07T02:38:32;9.60;99.90
20158;DHT22;10239;56.820;24.416;2023-09-07T02:41:00;9.40;99.90
20158;DHT22;10239;56.820;24.416;2023-09-07T02:43:29;9.30;99.90
20158;DHT22;10239;56.820;24.416;2023-09-07T02:45:58;9.40;99.90
20158;DHT22;10239;56.820;24.416;2023-09-07T02:48:26;9.30;99.90
20158;DHT22;10239;56.820;24.416;2023-09-07T02:50:54;9.10;99.90
20158;DHT22;10239;56.820;24.416;2023-09-07T02:53:23;9.20;99.90
20158;DHT22;10239;56.820;24.416;2023-09-07T02:55:51;9.10;99.90
20158;DHT22;10239;56.820;24.416;2023-09-07T02:58:18;9.10;99.90
20158;DHT22;10239;56.820;24.416;2023-09-07T03:00:47;9.10;99.90
20158;DHT22;10239;56.820;24.416;2023-09-07T03:03:18;9.10;99.90
20158;DHT22;10239;56.820;24.416;2023-09-07T03:05:47;9.10;99.90
20158;DHT22;10239;56.820;24.416;2023-09-07T03:08:15;9.20;99.90
20158;DHT22;10239;56.820;24.416;2023-09-07T03:10:42;9.30;99.90
20158;DHT22;10239;56.820;24.416;2023-09-07T03:13:11;9.20;99.90
20158;DHT22;10239;56.820;24.416;2023-09-07T03:15:39;9.10;99.90
20158;DHT22;10239;56.820;24.416;2023-09-07T03:18:11;9.10;99.90
20158;DHT22;10239;56.820;24.416;2023-09-07T03:20:40;9.10;99.90
20158;DHT22;10239;56.820;24.416;2023-09-07T03:23:09;9.20;99.90
20158;DHT22;10239;56.820;24.416;2023-09-07T03:25:37;9.20;99.90
20158;DHT22;10239;56.820;24.416;2023-09-07T03:28:04;9.20;99.90
20158;DHT22;10239;56.820;24.416;2023-09-07T03:30:34;9.10;99.90
20158;DHT22;10239;56.820;24.416;2023-09-07T03:33:04;9.10;99.90
20158;DHT22;10239;56.820;24.416;2023-09-07T03:35:33;9.20;99.90
20158;DHT22;10239;56.820;24.416;2023-09-07T03:38:01;9.10;99.90
20158;DHT22;10239;56.820;24.416;2023-09-07T03:40:29;9.10;99.90
20158;DHT22;10239;56.820;24.416;2023-09-07T03:42:57;9.10;99.90
20158;DHT22;10239;56.820;24.416;2023-09-07T03:45:26;9.20;99.90
20158;DHT22;10239;56.820;24.416;2023-09-07T03:47:53;9.20;99.90
20158;DHT22;10239;56.820;24.416;2023-09-07T03:50:21;9.20;99.90
20158;DHT22;10239;56.820;24.416;2023-09-07T03:52:49;9.30;99.90
20158;DHT22;10239;56.820;24.416;2023-09-07T03:55:16;9.20;99.90
20158;DHT22;10239;56.820;24.416;2023-09-07T03:57:47;9.20;99.90
20158;DHT22;10239;56.820;24.416;2023-09-07T04:00:14;9.20;99.90
20158;DHT22;10239;56.820;24.416;2023-09-07T04:02:46;9.20;99.90
20158;DHT22;10239;56.820;24.416;2023-09-07T04:05:14;9.40;99.90
20158;DHT22;10239;56.820;24.416;2023-09-07T04:07:41;9.40;99.90
20158;DHT22;10239;56.820;24.416;2023-09-07T04:10:09;9.50;99.90
20158;DHT22;10239;56.820;24.416;2023-09-07T04:12:37;9.60;99.90
20158;DHT22;10239;56.820;24.416;2023-09-07T04:15:05;9.70;99.90
20158;DHT22;10239;56.820;24.416;2023-09-07T04:17:32;9.80;99.90
20158;DHT22;10239;56.820;24.416;2023-09-07T04:20:08;9.80;99.90
20158;DHT22;10239;56.820;24.416;2023-09-07T04:22:39;9.90;99.90
20158;DHT22;10239;56.820;24.416;2023-09-07T04:25:09;10.20;99.90
20158;DHT22;10239;56.820;24.416;2023-09-07T04:27:40;10.30;99.90
20158;DHT22;10239;56.820;24.416;2023-09-07T04:30:10;10.20;99.90
20158;DHT22;10239;56.820;24.416;2023-09-07T04:32:38;10.40;99.90
20158;DHT22;10239;56.820;24.416;2023-09-07T04:35:06;10.50;99.90
20158;DHT22;10239;56.820;24.416;2023-09-07T04:37:36;10.40;99.90
20158;DHT22;10239;56.820;24.416;2023-09-07T04:40:06;10.70;99.90
20158;DHT22;10239;56.820;24.416;2023-09-07T04:42:34;10.80;99.90
20158;DHT22;10239;56.820;24.416;2023-09-07T04:45:04;10.70;99.90
20158;DHT22;10239;56.820;24.416;2023-09-07T04:47:33;10.70;99.90
20158;DHT22;10239;56.820;24.416;2023-09-07T04:50:01;10.70;99.90
20158;DHT22;10239;56.820;24.416;2023-09-07T04:52:29;11.10;99.90
20158;DHT22;10239;56.820;24.416;2023-09-07T04:54:58;11.90;99.90
20158;DHT22;10239;56.820;24.416;2023-09-07T04:57:30;13.00;99.90
20158;DHT22;10239;56.820;24.416;2023-09-07T04:59:58;14.10;99.90
20158;DHT22;10239;56.820;24.416;2023-09-07T05:02:28;14.80;99.90
20158;DHT22;10239;56.820;24.416;2023-09-07T05:04:55;15.90;99.90
20158;DHT22;10239;56.820;24.416;2023-09-07T05:07:24;16.80;99.90
20158;DHT22;10239;56.820;24.416;2023-09-07T05:09:53;17.70;99.90
20158;DHT22;10239;56.820;24.416;2023-09-07T05:12:21;18.50;99.90
20158;DHT22;10239;56.820;24.416;2023-09-07T05:14:50;18.80;99.90
20158;DHT22;10239;56.820;24.416;2023-09-07T05:17:18;19.30;99.90
20158;DHT22;10239;56.820;24.416;2023-09-07T05:19:47;20.10;99.90
20158;DHT22;10239;56.820;24.416;2023-09-07T05:22:17;21.00;99.90
20158;DHT22;10239;56.820;24.416;2023-09-07T05:24:47;21.60;99.90
20158;DHT22;10239;56.820;24.416;2023-09-07T05:27:15;21.60;99.90
20158;DHT22;10239;56.820;24.416;2023-09-07T05:29:43;21.10;99.90
20158;DHT22;10239;56.820;24.416;2023-09-07T05:32:13;21.70;99.90
20158;DHT22;10239;56.820;24.416;2023-09-07T05:34:42;22.80;99.90
20158;DHT22;10239;56.820;24.416;2023-09-07T05:37:10;23.70;99.90
20158;DHT22;10239;56.820;24.416;2023-09-07T05:39:38;22.60;99.90
20158;DHT22;10239;56.820;24.416;2023-09-07T05:42:06;22.30;99.90
20158;DHT22;10239;56.820;24.416;2023-09-07T05:44:34;22.10;99.90
20158;DHT22;10239;56.820;24.416;2023-09-07T05:47:03;21.70;99.90
20158;DHT22;10239;56.820;24.416;2023-09-07T05:49:31;21.50;99.90
20158;DHT22;10239;56.820;24.416;2023-09-07T05:51:59;22.20;99.90
20158;DHT22;10239;56.820;24.416;2023-09-07T05:54:27;23.30;99.90
20158;DHT22;10239;56.820;24.416;2023-09-07T05:56:55;24.50;99.90
20158;DHT22;10239;56.820;24.416;2023-09-07T05:59:24;25.40;99.90
20158;DHT22;10239;56.820;24.416;2023-09-07T06:01:53;26.00;99.90
20158;DHT22;10239;56.820;24.416;2023-09-07T06:04:21;26.70;99.90
20158;DHT22;10239;56.820;24.416;2023-09-07T06:06:49;27.60;99.90
20158;DHT22;10239;56.820;24.416;2023-09-07T06:09:18;28.30;99.90
20158;DHT22;10239;56.820;24.416;2023-09-07T06:11:46;28.50;99.90
20158;DHT22;10239;56.820;24.416;2023-09-07T06:14:15;28.80;99.90
20158;DHT22;10239;56.820;24.416;2023-09-07T06:16:43;29.30;99.90
20158;DHT22;10239;56.820;24.416;2023-09-07T06:19:11;29.20;99.90
20158;DHT22;10239;56.820;24.416;2023-09-07T06:21:41;29.10;99.90
20158;DHT22;10239;56.820;24.416;2023-09-07T06:24:09;29.40;99.90
20158;DHT22;10239;56.820;24.416;2023-09-07T06:26:37;29.40;99.90
20158;DHT22;10239;56.820;24.416;2023-09-07T06:29:05;29.90;99.90
20158;DHT22;10239;56.820;24.416;2023-09-07T06:31:33;29.90;99.90
20158;DHT22;10239;56.820;24.416;2023-09-07T06:34:01;29.70;99.90
20158;DHT22;10239;56.820;24.416;2023-09-07T06:36:30;30.00;99.90
20158;DHT22;10239;56.820;24.416;2023-09-07T06:39:14;30.60;99.90
20158;DHT22;10239;56.820;24.416;2023-09-07T06:41:45;31.20;99.90
20158;DHT22;10239;56.820;24.416;2023-09-07T06:44:14;30.70;99.90
20158;DHT22;10239;56.820;24.416;2023-09-07T06:46:43;29.90;99.90
20158;DHT22;10239;56.820;24.416;2023-09-07T06:49:12;29.50;99.90
20158;DHT22;10239;56.820;24.416;2023-09-07T06:51:40;30.00;99.90
20158;DHT22;10239;56.820;24.416;2023-09-07T06:54:08;30.40;99.90
20158;DHT22;10239;56.820;24.416;2023-09-07T06:56:37;30.80;99.90
20158;DHT22;10239;56.820;24.416;2023-09-07T06:59:05;31.60;99.90
20158;DHT22;10239;56.820;24.416;2023-09-07T07:01:34;31.60;99.50
20158;DHT22;10239;56.820;24.416;2023-09-07T07:04:04;32.60;98.20
20158;DHT22;10239;56.820;24.416;2023-09-07T07:06:33;32.60;96.80
20158;DHT22;10239;56.820;24.416;2023-09-07T07:09:01;32.90;97.70
20158;DHT22;10239;56.820;24.416;2023-09-07T07:11:31;32.60;94.50
20158;DHT22;10239;56.820;24.416;2023-09-07T07:13:59;32.90;97.10
20158;DHT22;10239;56.820;24.416;2023-09-07T07:16:27;33.00;94.40
20158;DHT22;10239;56.820;24.416;2023-09-07T07:18:56;33.60;93.80
20158;DHT22;10239;56.820;24.416;2023-09-07T12:55:20;23.90;99.90
20158;DHT22;10239;56.820;24.416;2023-09-07T12:57:50;23.90;99.90
20158;DHT22;10239;56.820;24.416;2023-09-07T13:00:18;24.20;99.90
20158;DHT22;10239;56.820;24.416;2023-09-07T13:02:47;24.40;99.90
20158;DHT22;10239;56.820;24.416;2023-09-07T13:05:15;24.40;99.90
20158;DHT22;10239;56.820;24.416;2023-09-07T13:07:45;24.60;99.90
20158;DHT22;10239;56.820;24.416;2023-09-07T13:10:13;24.70;99.90
20158;DHT22;10239;56.820;24.416;2023-09-07T13:12:42;24.70;99.90
20158;DHT22;10239;56.820;24.416;2023-09-07T13:15:10;24.90;99.90
20158;DHT22;10239;56.820;24.416;2023-09-07T13:17:38;24.80;99.90
20158;DHT22;10239;56.820;24.416;2023-09-07T13:20:10;24.90;99.90
20158;DHT22;10239;56.820;24.416;2023-09-07T13:22:38;24.90;99.90
20158;DHT22;10239;56.820;24.416;2023-09-07T13:25:10;24.60;99.90
20158;DHT22;10239;56.820;24.416;2023-09-07T13:27:38;24.50;99.90
20158;DHT22;10239;56.820;24.416;2023-09-07T13:30:07;24.40;99.90
20158;DHT22;10239;56.820;24.416;2023-09-07T13:32:41;24.30;99.60
20158;DHT22;10239;56.820;24.416;2023-09-07T13:35:12;24.50;99.90
20158;DHT22;10239;56.820;24.416;2023-09-07T13:37:40;24.60;99.90
20158;DHT22;10239;56.820;24.416;2023-09-07T13:40:08;24.60;99.90
20158;DHT22;10239;56.820;24.416;2023-09-07T13:42:39;24.50;99.90
20158;DHT22;10239;56.820;24.416;2023-09-07T13:45:11;24.40;99.90
20158;DHT22;10239;56.820;24.416;2023-09-07T13:47:42;24.40;99.90
20158;DHT22;10239;56.820;24.416;2023-09-07T13:50:12;24.40;99.90
20158;DHT22;10239;56.820;24.416;2023-09-07T13:52:41;24.40;99.90
20158;DHT22;10239;56.820;24.416;2023-09-07T13:55:09;24.40;99.90
20158;DHT22;10239;56.820;24.416;2023-09-07T13:57:40;24.30;99.90
20158;DHT22;10239;56.820;24.416;2023-09-07T14:00:13;24.20;99.90
20158;DHT22;10239;56.820;24.416;2023-09-07T14:02:46;24.10;99.90
20158;DHT22;10239;56.820;24.416;2023-09-07T14:05:15;24.00;99.90
20158;DHT22;10239;56.820;24.416;2023-09-07T14:07:55;23.90;99.90
20158;DHT22;10239;56.820;24.416;2023-09-07T14:10:27;23.80;99.90
20158;DHT22;10239;56.820;24.416;2023-09-07T14:12:57;23.60;99.90
20158;DHT22;10239;56.820;24.416;2023-09-07T14:15:27;23.50;99.90
20158;DHT22;10239;56.820;24.416;2023-09-07T14:17:58;23.40;99.90
20158;DHT22;10239;56.820;24.416;2023-09-07T14:20:30;23.20;99.90
20158;DHT22;10239;56.820;24.416;2023-09-07T14:22:59;23.10;99.90
20158;DHT22;10239;56.820;24.416;2023-09-07T14:25:29;23.00;99.90
20158;DHT22;10239;56.820;24.416;2023-09-07T14:28:00;23.10;99.90
20158;DHT22;10239;56.820;24.416;2023-09-07T14:30:28;23.10;99.90
20158;DHT22;10239;56.820;24.416;2023-09-07T14:33:00;23.00;99.90
20158;DHT22;10239;56.820;24.416;2023-09-07T14:35:30;22.90;99.90
20158;DHT22;10239;56.820;24.416;2023-09-07T14:37:59;22.70;99.90
20158;DHT22;10239;56.820;24.416;2023-09-07T14:40:30;22.60;99.90
20158;DHT22;10239;56.820;24.416;2023-09-07T14:42:59;22.60;99.90
20158;DHT22;10239;56.820;24.416;2023-09-07T14:45:27;22.50;99.90
20158;DHT22;10239;56.820;24.416;2023-09-07T14:47:55;22.50;99.90
20158;DHT22;10239;56.820;24.416;2023-09-07T14:50:25;22.40;99.90
20158;DHT22;10239;56.820;24.416;2023-09-07T14:52:53;22.30;99.90
20158;DHT22;10239;56.820;24.416;2023-09-07T14:55:22;22.30;99.90
20158;DHT22;10239;56.820;24.416;2023-09-07T14:57:51;22.10;99.90
20158;DHT22;10239;56.820;24.416;2023-09-07T15:00:21;22.10;99.90
20158;DHT22;10239;56.820;24.416;2023-09-07T15:02:52;22.20;99.90
20158;DHT22;10239;56.820;24.416;2023-09-07T15:05:21;22.20;99.90
20158;DHT22;10239;56.820;24.416;2023-09-07T15:07:48;22.20;99.90
20158;DHT22;10239;56.820;24.416;2023-09-07T15:10:16;22.10;99.90
20158;DHT22;10239;56.820;24.416;2023-09-07T15:12:44;22.10;99.90
20158;DHT22;10239;56.820;24.416;2023-09-07T15:15:12;21.90;99.90
20158;DHT22;10239;56.820;24.416;2023-09-07T15:17:46;21.80;99.90
20158;DHT22;10239;56.820;24.416;2023-09-07T15:20:14;21.80;99.90
20158;DHT22;10239;56.820;24.416;2023-09-07T15:22:43;21.80;99.90
20158;DHT22;10239;56.820;24.416;2023-09-07T15:25:13;21.70;99.90
20158;DHT22;10239;56.820;24.416;2023-09-07T15:27:44;21.60;99.90
20158;DHT22;10239;56.820;24.416;2023-09-07T15:30:15;21.50;99.90
20158;DHT22;10239;56.820;24.416;2023-09-07T15:32:43;21.50;99.90
20158;DHT22;10239;56.820;24.416;2023-09-07T15:35:10;21.40;99.90
20158;DHT22;10239;56.820;24.416;2023-09-07T15:37:38;21.40;99.90
20158;DHT22;10239;56.820;24.416;2023-09-07T15:40:08;21.30;99.90
20158;DHT22;10239;56.820;24.416;2023-09-07T15:42:38;21.20;99.90
20158;DHT22;10239;56.820;24.416;2023-09-07T15:45:06;21.20;99.90
20158;DHT22;10239;56.820;24.416;2023-09-07T15:47:34;21.20;99.90
20158;DHT22;10239;56.820;24.416;2023-09-07T15:50:03;21.20;99.90
20158;DHT22;10239;56.820;24.416;2023-09-07T15:52:30;21.20;99.90
20158;DHT22;10239;56.820;24.416;2023-09-07T15:54:58;21.20;99.90
20158;DHT22;10239;56.820;24.416;2023-09-07T15:57:26;21.20;99.90
20158;DHT22;10239;56.820;24.416;2023-09-07T15:59:54;21.10;99.90
20158;DHT22;10239;56.820;24.416;2023-09-07T16:02:23;21.10;99.90
20158;DHT22;10239;56.820;24.416;2023-09-07T16:04:51;21.00;99.90
20158;DHT22;10239;56.820;24.416;2023-09-07T16:07:19;20.90;99.90
20158;DHT22;10239;56.820;24.416;2023-09-07T16:09:47;20.90;99.90
20158;DHT22;10239;56.820;24.416;2023-09-07T16:12:15;20.70;99.90
20158;DHT22;10239;56.820;24.416;2023-09-07T16:14:42;20.60;99.90
20158;DHT22;10239;56.820;24.416;2023-09-07T16:17:10;20.40;99.90
20158;DHT22;10239;56.820;24.416;2023-09-07T16:19:38;20.10;99.90
20158;DHT22;10239;56.820;24.416;2023-09-07T16:22:06;19.80;99.90
20158;DHT22;10239;56.820;24.416;2023-09-07T16:24:37;19.60;99.90
20158;DHT22;10239;56.820;24.416;2023-09-07T16:27:04;19.50;99.90
20158;DHT22;10239;56.820;24.416;2023-09-07T16:29:32;19.40;99.90
20158;DHT22;10239;56.820;24.416;2023-09-07T16:32:00;19.20;99.90
20158;DHT22;10239;56.820;24.416;2023-09-07T16:34:28;19.10;99.90
20158;DHT22;10239;56.820;24.416;2023-09-07T16:36:55;18.90;99.90
20158;DHT22;10239;56.820;24.416;2023-09-07T16:39:23;18.70;99.90
20158;DHT22;10239;56.820;24.416;2023-09-07T16:41:51;18.50;99.90
20158;DHT22;10239;56.820;24.416;2023-09-07T16:44:19;18.30;99.90
20158;DHT22;10239;56.820;24.416;2023-09-07T16:46:46;18.20;99.90
20158;DHT22;10239;56.820;24.416;2023-09-07T16:49:14;18.10;99.90
20158;DHT22;10239;56.820;24.416;2023-09-07T16:51:42;17.90;99.90
20158;DHT22;10239;56.820;24.416;2023-09-07T16:54:11;17.70;99.90
20158;DHT22;10239;56.820;24.416;2023-09-07T16:56:39;17.60;99.90
20158;DHT22;10239;56.820;24.416;2023-09-07T16:59:08;17.60;99.90
20158;DHT22;10239;56.820;24.416;2023-09-07T17:01:55;17.50;99.90
20158;DHT22;10239;56.820;24.416;2023-09-07T17:04:24;17.40;99.90
20158;DHT22;10239;56.820;24.416;2023-09-07T17:06:52;17.20;99.90
20158;DHT22;10239;56.820;24.416;2023-09-07T17:09:33;17.00;99.90
20158;DHT22;10239;56.820;24.416;2023-09-07T17:12:01;17.00;99.90
20158;DHT22;10239;56.820;24.416;2023-09-07T17:14:29;17.00;99.90
20158;DHT22;10239;56.820;24.416;2023-09-07T17:16:57;17.00;99.90
20158;DHT22;10239;56.820;24.416;2023-09-07T17:19:26;17.00;99.90
20158;DHT22;10239;56.820;24.416;2023-09-07T17:21:56;16.80;99.90
20158;DHT22;10239;56.820;24.416;2023-09-07T17:24:24;16.60;99.90
20158;DHT22;10239;56.820;24.416;2023-09-07T17:26:52;16.30;99.90
20158;DHT22;10239;56.820;24.416;2023-09-07T17:29:23;16.20;99.90
20158;DHT22;10239;56.820;24.416;2023-09-07T17:31:51;16.10;99.90
20158;DHT22;10239;56.820;24.416;2023-09-07T17:34:19;16.20;99.90
20158;DHT22;10239;56.820;24.416;2023-09-07T17:36:46;16.10;99.90
20158;DHT22;10239;56.820;24.416;2023-09-07T17:39:14;15.90;99.90
20158;DHT22;10239;56.820;24.416;2023-09-07T17:41:42;15.80;99.90
20158;DHT22;10239;56.820;24.416;2023-09-07T17:44:10;15.80;99.90
20158;DHT22;10239;56.820;24.416;2023-09-07T17:46:38;15.50;99.90
20158;DHT22;10239;56.820;24.416;2023-09-07T17:49:05;15.40;99.90
20158;DHT22;10239;56.820;24.416;2023-09-07T17:51:34;15.30;99.90
20158;DHT22;10239;56.820;24.416;2023-09-07T17:54:02;15.30;99.90
20158;DHT22;10239;56.820;24.416;2023-09-07T17:56:29;15.40;99.90
20158;DHT22;10239;56.820;24.416;2023-09-07T17:58:57;15.40;99.90
20158;DHT22;10239;56.820;24.416;2023-09-07T18:01:24;15.50;99.90
20158;DHT22;10239;56.820;24.416;2023-09-07T18:03:53;15.40;99.90
20158;DHT22;10239;56.820;24.416;2023-09-07T18:06:22;15.30;99.90
20158;DHT22;10239;56.820;24.416;2023-09-07T18:08:51;15.20;99.90
20158;DHT22;10239;56.820;24.416;2023-09-07T18:11:18;15.30;99.90
20158;DHT22;10239;56.820;24.416;2023-09-07T18:13:47;15.00;99.90
20158;DHT22;10239;56.820;24.416;2023-09-07T18:16:23;14.90;99.90
20158;DHT22;10239;56.820;24.416;2023-09-07T18:18:51;14.80;99.90
20158;DHT22;10239;56.820;24.416;2023-09-07T18:21:19;14.70;99.90
20158;DHT22;10239;56.820;24.416;2023-09-07T18:23:47;14.80;99.90
20158;DHT22;10239;56.820;24.416;2023-09-07T18:26:15;14.80;99.90
20158;DHT22;10239;56.820;24.416;2023-09-07T18:28:42;14.60;99.90
20158;DHT22;10239;56.820;24.416;2023-09-07T18:31:11;14.70;99.90
20158;DHT22;10239;56.820;24.416;2023-09-07T18:33:38;14.70;99.90
20158;DHT22;10239;56.820;24.416;2023-09-07T18:36:07;14.70;99.90
20158;DHT22;10239;56.820;24.416;2023-09-07T18:38:36;14.70;99.90
20158;DHT22;10239;56.820;24.416;2023-09-07T18:41:03;14.50;99.90
20158;DHT22;10239;56.820;24.416;2023-09-07T18:43:33;14.50;99.90
20158;DHT22;10239;56.820;24.416;2023-09-07T18:46:08;14.40;99.90
20158;DHT22;10239;56.820;24.416;2023-09-07T18:48:36;14.30;99.90
20158;DHT22;10239;56.820;24.416;2023-09-07T18:51:05;14.30;99.90
20158;DHT22;10239;56.820;24.416;2023-09-07T18:53:34;14.30;99.90
20158;DHT22;10239;56.820;24.416;2023-09-07T18:56:03;14.30;99.90
20158;DHT22;10239;56.820;24.416;2023-09-07T18:58:32;14.30;99.90
20158;DHT22;10239;56.820;24.416;2023-09-07T19:01:11;14.10;99.90
20158;DHT22;10239;56.820;24.416;2023-09-07T19:03:43;14.00;99.90
20158;DHT22;10239;56.820;24.416;2023-09-07T19:06:11;14.10;99.90
20158;DHT22;10239;56.820;24.416;2023-09-07T19:08:39;14.10;99.90
20158;DHT22;10239;56.820;24.416;2023-09-07T19:11:07;14.10;99.90
20158;DHT22;10239;56.820;24.416;2023-09-07T19:13:34;14.00;99.90
20158;DHT22;10239;56.820;24.416;2023-09-07T19:16:02;13.90;99.90
20158;DHT22;10239;56.820;24.416;2023-09-07T19:18:31;14.00;99.90
20158;DHT22;10239;56.820;24.416;2023-09-07T19:20:59;14.00;99.90
20158;DHT22;10239;56.820;24.416;2023-09-07T19:23:46;14.00;99.90
20158;DHT22;10239;56.820;24.416;2023-09-07T19:26:38;13.90;99.90
20158;DHT22;10239;56.820;24.416;2023-09-07T19:29:09;14.00;99.90
20158;DHT22;10239;56.820;24.416;2023-09-07T19:31:38;14.00;99.90
20158;DHT22;10239;56.820;24.416;2023-09-07T19:34:07;14.00;99.90
20158;DHT22;10239;56.820;24.416;2023-09-07T19:36:35;14.00;99.90
20158;DHT22;10239;56.820;24.416;2023-09-07T19:39:04;14.00;99.90
20158;DHT22;10239;56.820;24.416;2023-09-07T19:41:33;13.90;99.90
20158;DHT22;10239;56.820;24.416;2023-09-07T19:44:05;13.80;99.90
20158;DHT22;10239;56.820;24.416;2023-09-07T19:46:33;13.80;99.90
20158;DHT22;10239;56.820;24.416;2023-09-07T19:49:01;13.80;99.90
20158;DHT22;10239;56.820;24.416;2023-09-07T19:51:28;13.60;99.90
20158;DHT22;10239;56.820;24.416;2023-09-07T19:53:56;13.50;99.90
20158;DHT22;10239;56.820;24.416;2023-09-07T19:56:25;13.50;99.90
20158;DHT22;10239;56.820;24.416;2023-09-07T19:58:54;13.40;99.90
20158;DHT22;10239;56.820;24.416;2023-09-07T20:01:22;13.40;99.90
20158;DHT22;10239;56.820;24.416;2023-09-07T20:03:52;13.40;99.90
20158;DHT22;10239;56.820;24.416;2023-09-07T20:06:23;13.10;99.90
20158;DHT22;10239;56.820;24.416;2023-09-07T20:08:51;13.00;99.90
20158;DHT22;10239;56.820;24.416;2023-09-07T20:11:19;13.10;99.90
20158;DHT22;10239;56.820;24.416;2023-09-07T20:13:47;13.20;99.90
20158;DHT22;10239;56.820;24.416;2023-09-07T20:16:15;13.20;99.90
20158;DHT22;10239;56.820;24.416;2023-09-07T20:18:44;13.20;99.90
20158;DHT22;10239;56.820;24.416;2023-09-07T20:21:13;13.30;99.90
20158;DHT22;10239;56.820;24.416;2023-09-07T20:23:41;13.30;99.90
20158;DHT22;10239;56.820;24.416;2023-09-07T20:26:09;13.30;99.90
20158;DHT22;10239;56.820;24.416;2023-09-07T20:28:37;13.30;99.90
20158;DHT22;10239;56.820;24.416;2023-09-07T20:31:05;13.30;99.90
20158;DHT22;10239;56.820;24.416;2023-09-07T20:33:35;13.30;99.90
20158;DHT22;10239;56.820;24.416;2023-09-07T20:36:03;13.20;99.90
20158;DHT22;10239;56.820;24.416;2023-09-07T20:38:30;13.00;99.90
20158;DHT22;10239;56.820;24.416;2023-09-07T20:40:59;13.10;99.90
20158;DHT22;10239;56.820;24.416;2023-09-07T20:43:28;13.10;99.90
20158;DHT22;10239;56.820;24.416;2023-09-07T20:45:56;13.00;99.90
20158;DHT22;10239;56.820;24.416;2023-09-07T20:48:26;12.90;99.90
20158;DHT22;10239;56.820;24.416;2023-09-07T20:50:54;12.80;99.90
20158;DHT22;10239;56.820;24.416;2023-09-07T20:53:22;12.90;99.90
20158;DHT22;10239;56.820;24.416;2023-09-07T20:55:49;12.80;99.90
20158;DHT22;10239;56.820;24.416;2023-09-07T20:58:17;12.70;99.90
20158;DHT22;10239;56.820;24.416;2023-09-07T21:00:45;12.80;99.90
20158;DHT22;10239;56.820;24.416;2023-09-07T21:03:13;12.80;99.90